sensor_id;sensor_type;location;lat;lon;timestamp;pressure;altitude;pressure_sealevel;temperature;humidity
7075;BME280;3578;51.568;6.932;2023-03-20T00:00:48;52039.81;;;-144.14;97.54
7075;BME280;3578;51.568;6.932;2023-03-20T00:03:16;52027.78;;;-144.14;97.06
7075;BME280;3578;51.568;6.932;2023-03-20T00:05:43;52055.84;;;-144.14;96.97
7075;BME280;3578;51.568;6.932;2023-03-20T00:08:10;52063.84;;;-144.14;97.10
7075;BME280;3578;51.568;6.932;2023-03-20T00:10:41;52059.84;;;-144.14;97.05
7075;BME280;3578;51.568;6.932;2023-03-20T00:13:14;52003.75;;;-144.14;97.31
7075;BME280;3578;51.568;6.932;2023-03-20T00:15:43;52029.78;;;-144.14;96.78
7075;BME280;3578;51.568;6.932;2023-03-20T00:18:14;52071.88;;;-144.14;97.17
7075;BME280;3578;51.568;6.932;2023-03-20T00:20:43;52039.81;;;-144.14;97.80
7075;BME280;3578;51.568;6.932;2023-03-20T00:23:11;52039.81;;;-144.14;97.67
7075;BME280;3578;51.568;6.932;2023-03-20T00:25:39;52019.78;;;-144.14;97.84
7075;BME280;3578;51.568;6.932;2023-03-20T00:28:34;52059.84;;;-144.14;98.01
7075;BME280;3578;51.568;6.932;2023-03-20T00:31:04;52031.81;;;-144.14;98.23
7075;BME280;3578;51.568;6.932;2023-03-20T00:33:37;52019.78;;;-144.14;98.54
7075;BME280;3578;51.568;6.932;2023-03-20T00:36:05;51997.75;;;-144.14;98.99
7075;BME280;3578;51.568;6.932;2023-03-20T00:38:32;52003.75;;;-144.14;98.69
7075;BME280;3578;51.568;6.932;2023-03-20T00:40:59;51981.72;;;-144.14;98.32
7075;BME280;3578;51.568;6.932;2023-03-20T00:43:27;51991.72;;;-144.14;98.13
7075;BME280;3578;51.568;6.932;2023-03-20T00:45:54;51995.75;;;-144.14;98.52
7075;BME280;3578;51.568;6.932;2023-03-20T00:48:21;51997.75;;;-144.14;98.67
7075;BME280;3578;51.568;6.932;2023-03-20T00:50:48;51979.72;;;-144.14;98.58
7075;BME280;3578;51.568;6.932;2023-03-20T00:53:15;51977.72;;;-144.14;98.78
7075;BME280;3578;51.568;6.932;2023-03-20T00:55:42;51985.72;;;-144.14;98.67
7075;BME280;3578;51.568;6.932;2023-03-20T00:58:10;51997.75;;;-144.14;98.29
7075;BME280;3578;51.568;6.932;2023-03-20T01:00:40;52015.78;;;-144.14;97.98
7075;BME280;3578;51.568;6.932;2023-03-20T01:03:15;52035.81;;;-144.14;97.57
7075;BME280;3578;51.568;6.932;2023-03-20T01:05:43;52015.78;;;-144.14;97.67
7075;BME280;3578;51.568;6.932;2023-03-20T01:08:16;51987.72;;;-144.14;98.10
7075;BME280;3578;51.568;6.932;2023-03-20T01:10:46;51999.75;;;-144.14;98.39
7075;BME280;3578;51.568;6.932;2023-03-20T01:13:19;51985.72;;;-144.14;98.43
7075;BME280;3578;51.568;6.932;2023-03-20T01:15:50;51987.72;;;-144.14;98.16
7075;BME280;3578;51.568;6.932;2023-03-20T01:18:24;52011.78;;;-144.14;98.17
7075;BME280;3578;51.568;6.932;2023-03-20T01:20:52;52005.75;;;-144.14;98.45
7075;BME280;3578;51.568;6.932;2023-03-20T01:23:20;52051.84;;;-144.14;97.86
7075;BME280;3578;51.568;6.932;2023-03-20T01:25:47;52027.78;;;-144.14;97.73
7075;BME280;3578;51.568;6.932;2023-03-20T01:28:18;52067.88;;;-144.14;97.37
7075;BME280;3578;51.568;6.932;2023-03-20T01:30:48;52043.81;;;-144.14;96.52
7075;BME280;3578;51.568;6.932;2023-03-20T01:33:17;52071.88;;;-144.14;95.96
7075;BME280;3578;51.568;6.932;2023-03-20T01:35:46;52101.91;;;-144.14;96.23
7075;BME280;3578;51.568;6.932;2023-03-20T01:38:18;52057.84;;;-144.14;96.44
7075;BME280;3578;51.568;6.932;2023-03-20T01:40:52;52081.88;;;-144.14;96.50
7075;BME280;3578;51.568;6.932;2023-03-20T01:43:21;52073.88;;;-144.14;96.81
7075;BME280;3578;51.568;6.932;2023-03-20T01:45:58;52059.84;;;-144.14;97.01
7075;BME280;3578;51.568;6.932;2023-03-20T01:48:54;52069.88;;;-144.14;96.82
7075;BME280;3578;51.568;6.932;2023-03-20T01:51:23;52077.88;;;-144.14;96.97
7075;BME280;3578;51.568;6.932;2023-03-20T01:53:53;52091.91;;;-144.14;96.76
7075;BME280;3578;51.568;6.932;2023-03-20T01:56:22;52085.91;;;-144.14;97.05
7075;BME280;3578;51.568;6.932;2023-03-20T01:58:55;52027.78;;;-144.14;96.75
7075;BME280;3578;51.568;6.932;2023-03-20T02:01:27;52079.88;;;-144.14;96.51
7075;BME280;3578;51.568;6.932;2023-03-20T02:03:55;52091.91;;;-144.14;96.66
7075;BME280;3578;51.568;6.932;2023-03-20T02:06:24;52091.91;;;-144.14;96.73
7075;BME280;3578;51.568;6.932;2023-03-20T02:08:52;52091.91;;;-144.14;96.84
7075;BME280;3578;51.568;6.932;2023-03-20T02:11:21;52069.88;;;-144.14;96.98
7075;BME280;3578;51.568;6.932;2023-03-20T02:13:52;52021.78;;;-144.14;97.09
7075;BME280;3578;51.568;6.932;2023-03-20T02:16:20;52043.81;;;-144.14;97.08
7075;BME280;3578;51.568;6.932;2023-03-20T02:18:50;52089.91;;;-144.14;96.90
7075;BME280;3578;51.568;6.932;2023-03-20T02:22:22;52049.84;;;-144.14;96.82
7075;BME280;3578;51.568;6.932;2023-03-20T02:25:36;52067.88;;;-144.14;97.00
7075;BME280;3578;51.568;6.932;2023-03-20T02:28:46;52067.88;;;-144.14;97.23
7075;BME280;3578;51.568;6.932;2023-03-20T02:31:41;52083.88;;;-144.14;96.95
7075;BME280;3578;51.568;6.932;2023-03-20T02:34:55;52073.88;;;-144.14;96.60
7075;BME280;3578;51.568;6.932;2023-03-20T02:38:03;52087.91;;;-144.14;96.99
7075;BME280;3578;51.568;6.932;2023-03-20T02:40:39;52067.88;;;-144.14;96.78
7075;BME280;3578;51.568;6.932;2023-03-20T02:43:17;52083.88;;;-144.14;96.19
7075;BME280;3578;51.568;6.932;2023-03-20T02:45:51;52051.84;;;-144.14;96.09
7075;BME280;3578;51.568;6.932;2023-03-20T02:48:30;52091.91;;;-144.14;97.01
7075;BME280;3578;51.568;6.932;2023-03-20T02:51:03;52035.81;;;-144.14;97.38
7075;BME280;3578;51.568;6.932;2023-03-20T02:53:46;52047.84;;;-144.14;96.99
7075;BME280;3578;51.568;6.932;2023-03-20T02:56:19;52065.84;;;-144.14;97.11
7075;BME280;3578;51.568;6.932;2023-03-20T02:58:55;52093.91;;;-144.14;97.22
7075;BME280;3578;51.568;6.932;2023-03-20T03:01:29;52047.84;;;-144.14;97.85
7075;BME280;3578;51.568;6.932;2023-03-20T03:04:01;52071.88;;;-144.14;98.12
7075;BME280;3578;51.568;6.932;2023-03-20T03:06:32;52015.78;;;-144.14;98.35
7075;BME280;3578;51.568;6.932;2023-03-20T03:09:05;52033.81;;;-144.14;98.04
7075;BME280;3578;51.568;6.932;2023-03-20T03:11:46;52043.81;;;-144.14;97.79
7075;BME280;3578;51.568;6.932;2023-03-20T03:14:27;52059.84;;;-144.14;97.96
7075;BME280;3578;51.568;6.932;2023-03-20T03:16:57;52001.75;;;-144.14;98.21
7075;BME280;3578;51.568;6.932;2023-03-20T03:19:27;52013.78;;;-144.14;98.46
7075;BME280;3578;51.568;6.932;2023-03-20T03:21:55;52013.78;;;-144.14;99.23
7075;BME280;3578;51.568;6.932;2023-03-20T03:24:29;51991.72;;;-144.14;99.39
7075;BME280;3578;51.568;6.932;2023-03-20T03:27:00;51997.75;;;-144.14;99.12
7075;BME280;3578;51.568;6.932;2023-03-20T03:29:33;51935.63;;;-144.14;98.99
7075;BME280;3578;51.568;6.932;2023-03-20T03:32:05;51981.72;;;-144.14;99.12
7075;BME280;3578;51.568;6.932;2023-03-20T03:34:33;51987.72;;;-144.14;98.85
7075;BME280;3578;51.568;6.932;2023-03-20T03:37:09;52003.75;;;-144.14;98.79
7075;BME280;3578;51.568;6.932;2023-03-20T03:39:47;52001.75;;;-144.14;98.74
7075;BME280;3578;51.568;6.932;2023-03-20T03:42:23;51987.72;;;-144.14;98.77
7075;BME280;3578;51.568;6.932;2023-03-20T03:44:58;52001.75;;;-144.14;98.71
7075;BME280;3578;51.568;6.932;2023-03-20T03:47:30;51957.69;;;-144.14;98.63
7075;BME280;3578;51.568;6.932;2023-03-20T03:50:04;52013.78;;;-144.14;98.58
7075;BME280;3578;51.568;6.932;2023-03-20T03:52:34;52035.81;;;-144.14;97.68
7075;BME280;3578;51.568;6.932;2023-03-20T03:55:07;52047.84;;;-144.14;97.13
7075;BME280;3578;51.568;6.932;2023-03-20T03:57:40;51995.75;;;-144.14;96.91
7075;BME280;3578;51.568;6.932;2023-03-20T04:00:11;52029.78;;;-144.14;96.87
7075;BME280;3578;51.568;6.932;2023-03-20T04:02:41;52045.81;;;-144.14;96.89
7075;BME280;3578;51.568;6.932;2023-03-20T04:05:10;52091.91;;;-144.14;96.96
7075;BME280;3578;51.568;6.932;2023-03-20T04:07:41;52043.81;;;-144.14;96.84
7075;BME280;3578;51.568;6.932;2023-03-20T04:10:11;52083.88;;;-144.14;96.62
7075;BME280;3578;51.568;6.932;2023-03-20T04:12:40;52019.78;;;-144.14;96.90
7075;BME280;3578;51.568;6.932;2023-03-20T04:15:08;52023.78;;;-144.14;97.13
7075;BME280;3578;51.568;6.932;2023-03-20T04:17:36;52047.84;;;-144.14;96.94
7075;BME280;3578;51.568;6.932;2023-03-20T04:20:04;52093.91;;;-144.14;96.75
7075;BME280;3578;51.568;6.932;2023-03-20T04:22:32;52065.84;;;-144.14;96.85
7075;BME280;3578;51.568;6.932;2023-03-20T04:25:00;52083.88;;;-144.14;96.81
7075;BME280;3578;51.568;6.932;2023-03-20T04:27:29;52041.81;;;-144.14;96.97
7075;BME280;3578;51.568;6.932;2023-03-20T04:29:56;52019.78;;;-144.14;96.62
7075;BME280;3578;51.568;6.932;2023-03-20T04:32:23;52049.84;;;-144.14;96.83
7075;BME280;3578;51.568;6.932;2023-03-20T04:34:50;52075.88;;;-144.14;97.13
7075;BME280;3578;51.568;6.932;2023-03-20T04:37:18;52047.84;;;-144.14;97.27
7075;BME280;3578;51.568;6.932;2023-03-20T04:39:45;52011.78;;;-144.14;98.00
7075;BME280;3578;51.568;6.932;2023-03-20T04:42:12;52005.75;;;-144.14;98.28
7075;BME280;3578;51.568;6.932;2023-03-20T04:44:40;52023.78;;;-144.14;98.09
7075;BME280;3578;51.568;6.932;2023-03-20T04:47:07;52015.78;;;-144.14;97.93
7075;BME280;3578;51.568;6.932;2023-03-20T04:49:34;52001.75;;;-144.14;98.29
7075;BME280;3578;51.568;6.932;2023-03-20T04:52:01;51991.72;;;-144.14;98.63
7075;BME280;3578;51.568;6.932;2023-03-20T04:54:28;51977.72;;;-144.14;98.47
7075;BME280;3578;51.568;6.932;2023-03-20T04:56:55;51981.72;;;-144.14;98.57
7075;BME280;3578;51.568;6.932;2023-03-20T04:59:23;51999.75;;;-144.14;98.20
7075;BME280;3578;51.568;6.932;2023-03-20T05:01:51;51995.75;;;-144.14;98.31
7075;BME280;3578;51.568;6.932;2023-03-20T05:04:18;51943.66;;;-144.14;98.21
7075;BME280;3578;51.568;6.932;2023-03-20T05:06:45;51979.72;;;-144.14;98.75
7075;BME280;3578;51.568;6.932;2023-03-20T05:09:14;51947.66;;;-144.14;98.59
7075;BME280;3578;51.568;6.932;2023-03-20T05:11:41;51995.75;;;-144.14;98.20
7075;BME280;3578;51.568;6.932;2023-03-20T05:14:09;51979.72;;;-144.14;98.28
7075;BME280;3578;51.568;6.932;2023-03-20T05:16:36;51985.72;;;-144.14;98.50
7075;BME280;3578;51.568;6.932;2023-03-20T05:19:05;51983.72;;;-144.14;98.88
7075;BME280;3578;51.568;6.932;2023-03-20T05:21:32;51947.66;;;-144.14;99.00
7075;BME280;3578;51.568;6.932;2023-03-20T05:23:59;51967.69;;;-144.14;99.51
7075;BME280;3578;51.568;6.932;2023-03-20T05:26:26;51927.63;;;-144.14;99.88
7075;BME280;3578;51.568;6.932;2023-03-20T05:28:53;51951.66;;;-144.14;99.66
7075;BME280;3578;51.568;6.932;2023-03-20T05:31:20;51943.66;;;-144.14;100.00
7075;BME280;3578;51.568;6.932;2023-03-20T05:33:47;51899.59;;;-144.14;100.00
7075;BME280;3578;51.568;6.932;2023-03-20T05:36:15;51921.63;;;-144.14;100.00
7075;BME280;3578;51.568;6.932;2023-03-20T05:38:42;51915.59;;;-144.14;99.74
7075;BME280;3578;51.568;6.932;2023-03-20T05:41:09;51923.63;;;-144.14;100.00
7075;BME280;3578;51.568;6.932;2023-03-20T05:43:36;51917.63;;;-144.14;100.00
7075;BME280;3578;51.568;6.932;2023-03-20T05:46:03;51899.59;;;-144.14;100.00
7075;BME280;3578;51.568;6.932;2023-03-20T05:48:30;51903.59;;;-144.14;100.00
7075;BME280;3578;51.568;6.932;2023-03-20T05:50:57;51919.63;;;-144.14;99.80
7075;BME280;3578;51.568;6.932;2023-03-20T05:53:25;51931.63;;;-144.14;99.46
7075;BME280;3578;51.568;6.932;2023-03-20T05:55:52;51937.66;;;-144.14;99.53
7075;BME280;3578;51.568;6.932;2023-03-20T05:58:19;51935.63;;;-144.14;99.52
7075;BME280;3578;51.568;6.932;2023-03-20T06:00:47;51919.63;;;-144.14;99.46
7075;BME280;3578;51.568;6.932;2023-03-20T06:03:14;51949.66;;;-144.14;99.19
7075;BME280;3578;51.568;6.932;2023-03-20T06:05:41;51939.66;;;-144.14;99.02
7075;BME280;3578;51.568;6.932;2023-03-20T06:08:08;51951.66;;;-144.14;98.45
7075;BME280;3578;51.568;6.932;2023-03-20T06:10:36;51989.72;;;-144.14;97.96
7075;BME280;3578;51.568;6.932;2023-03-20T06:13:03;51951.66;;;-144.14;98.29
7075;BME280;3578;51.568;6.932;2023-03-20T06:15:30;51995.75;;;-144.14;97.48
7075;BME280;3578;51.568;6.932;2023-03-20T06:17:57;52021.78;;;-144.14;97.16
7075;BME280;3578;51.568;6.932;2023-03-20T06:20:24;52005.75;;;-144.14;96.74
7075;BME280;3578;51.568;6.932;2023-03-20T06:22:51;51995.75;;;-144.14;96.65
7075;BME280;3578;51.568;6.932;2023-03-20T06:25:19;52055.84;;;-144.14;96.01
7075;BME280;3578;51.568;6.932;2023-03-20T06:27:48;52059.84;;;-144.14;96.11
7075;BME280;3578;51.568;6.932;2023-03-20T06:30:16;52039.81;;;-144.14;96.49
7075;BME280;3578;51.568;6.932;2023-03-20T06:32:44;52043.81;;;-144.14;96.35
7075;BME280;3578;51.568;6.932;2023-03-20T06:35:11;52057.84;;;-144.14;96.92
7075;BME280;3578;51.568;6.932;2023-03-20T06:37:40;51993.75;;;-144.14;96.66
7075;BME280;3578;51.568;6.932;2023-03-20T06:40:08;52067.88;;;-144.14;95.89
7075;BME280;3578;51.568;6.932;2023-03-20T06:42:36;52063.84;;;-144.14;95.98
7075;BME280;3578;51.568;6.932;2023-03-20T06:45:06;52085.91;;;-144.14;95.67
7075;BME280;3578;51.568;6.932;2023-03-20T06:47:33;52055.84;;;-144.14;95.72
7075;BME280;3578;51.568;6.932;2023-03-20T06:50:01;52067.88;;;-144.14;95.29
7075;BME280;3578;51.568;6.932;2023-03-20T06:52:29;52081.88;;;-144.14;94.91
7075;BME280;3578;51.568;6.932;2023-03-20T06:54:56;52129.97;;;-144.14;94.04
7075;BME280;3578;51.568;6.932;2023-03-20T06:57:23;52164.03;;;-144.14;93.95
7075;BME280;3578;51.568;6.932;2023-03-20T06:59:50;52115.94;;;-144.14;93.43
7075;BME280;3578;51.568;6.932;2023-03-20T07:02:19;52140.00;;;-144.14;93.27
7075;BME280;3578;51.568;6.932;2023-03-20T07:04:46;52164.03;;;-144.14;93.23
7075;BME280;3578;51.568;6.932;2023-03-20T07:07:13;52172.03;;;-144.14;93.07
7075;BME280;3578;51.568;6.932;2023-03-20T07:09:41;52178.06;;;-144.14;92.80
7075;BME280;3578;51.568;6.932;2023-03-20T07:12:11;52129.97;;;-144.14;92.51
7075;BME280;3578;51.568;6.932;2023-03-20T07:14:42;52204.09;;;-144.14;91.07
7075;BME280;3578;51.568;6.932;2023-03-20T07:17:10;52240.16;;;-144.14;90.92
7075;BME280;3578;51.568;6.932;2023-03-20T07:19:38;52218.13;;;-144.14;90.52
7075;BME280;3578;51.568;6.932;2023-03-20T07:22:08;52228.13;;;-144.14;90.34
7075;BME280;3578;51.568;6.932;2023-03-20T07:24:41;52258.19;;;-144.14;90.17
7075;BME280;3578;51.568;6.932;2023-03-20T07:27:08;52256.19;;;-144.14;89.60
7075;BME280;3578;51.568;6.932;2023-03-20T07:29:35;52252.19;;;-144.14;89.22
7075;BME280;3578;51.568;6.932;2023-03-20T07:32:02;52290.25;;;-144.14;88.37
7075;BME280;3578;51.568;6.932;2023-03-20T07:34:29;52266.19;;;-144.14;87.65
7075;BME280;3578;51.568;6.932;2023-03-20T07:36:58;52328.31;;;-144.14;87.43
7075;BME280;3578;51.568;6.932;2023-03-20T07:39:26;52328.31;;;-144.14;86.46
7075;BME280;3578;51.568;6.932;2023-03-20T07:41:54;52360.38;;;-144.14;86.85
7075;BME280;3578;51.568;6.932;2023-03-20T07:44:21;52358.38;;;-144.14;86.51
7075;BME280;3578;51.568;6.932;2023-03-20T07:46:49;52386.41;;;-144.14;85.66
7075;BME280;3578;51.568;6.932;2023-03-20T07:49:16;52420.47;;;-144.14;85.30
7075;BME280;3578;51.568;6.932;2023-03-20T07:51:44;52396.44;;;-144.14;85.25
7075;BME280;3578;51.568;6.932;2023-03-20T07:54:12;52464.56;;;-144.14;84.63
7075;BME280;3578;51.568;6.932;2023-03-20T07:56:40;52452.53;;;-144.14;83.92
7075;BME280;3578;51.568;6.932;2023-03-20T07:59:07;52412.47;;;-144.14;83.72
7075;BME280;3578;51.568;6.932;2023-03-20T08:01:34;52508.63;;;-144.14;83.87
7075;BME280;3578;51.568;6.932;2023-03-20T08:04:01;52550.72;;;-144.14;81.98
7075;BME280;3578;51.568;6.932;2023-03-20T08:06:28;52580.78;;;-144.14;81.15
7075;BME280;3578;51.568;6.932;2023-03-20T08:08:55;52608.81;;;-144.14;80.65
7075;BME280;3578;51.568;6.932;2023-03-20T08:11:24;52624.84;;;-144.14;78.88
7075;BME280;3578;51.568;6.932;2023-03-20T08:13:51;52638.88;;;-144.14;78.23
7075;BME280;3578;51.568;6.932;2023-03-20T08:16:18;52642.88;;;-144.14;78.46
7075;BME280;3578;51.568;6.932;2023-03-20T08:18:45;52628.84;;;-144.14;79.27
7075;BME280;3578;51.568;6.932;2023-03-20T08:21:12;52668.94;;;-144.14;80.38
7075;BME280;3578;51.568;6.932;2023-03-20T08:23:39;52608.81;;;-144.14;80.25
7075;BME280;3578;51.568;6.932;2023-03-20T08:26:06;52668.94;;;-144.14;80.45
7075;BME280;3578;51.568;6.932;2023-03-20T08:28:34;52614.84;;;-144.14;79.97
7075;BME280;3578;51.568;6.932;2023-03-20T08:31:04;52656.91;;;-144.14;79.01
7075;BME280;3578;51.568;6.932;2023-03-20T08:33:33;52709.00;;;-144.14;77.66
7075;BME280;3578;51.568;6.932;2023-03-20T08:36:00;52745.06;;;-144.14;77.27
7075;BME280;3578;51.568;6.932;2023-03-20T08:38:27;52739.06;;;-144.14;74.63
7075;BME280;3578;51.568;6.932;2023-03-20T08:40:54;52729.03;;;-144.14;77.18
7075;BME280;3578;51.568;6.932;2023-03-20T08:43:21;52721.03;;;-144.14;76.64
7075;BME280;3578;51.568;6.932;2023-03-20T08:45:51;52767.13;;;-144.14;74.20
7075;BME280;3578;51.568;6.932;2023-03-20T08:48:18;52797.19;;;-144.14;73.27
7075;BME280;3578;51.568;6.932;2023-03-20T08:50:45;52783.16;;;-144.14;73.28
7075;BME280;3578;51.568;6.932;2023-03-20T08:53:12;52783.16;;;-144.14;73.48
7075;BME280;3578;51.568;6.932;2023-03-20T08:55:39;52813.22;;;-144.14;73.89
7075;BME280;3578;51.568;6.932;2023-03-20T08:58:06;52781.16;;;-144.14;72.18
7075;BME280;3578;51.568;6.932;2023-03-20T09:00:33;52845.28;;;-144.14;71.34
7075;BME280;3578;51.568;6.932;2023-03-20T09:03:02;52851.28;;;-144.14;70.42
7075;BME280;3578;51.568;6.932;2023-03-20T09:05:29;52903.38;;;-144.14;69.40
7075;BME280;3578;51.568;6.932;2023-03-20T09:07:56;52889.34;;;-144.14;68.01
7075;BME280;3578;51.568;6.932;2023-03-20T09:10:23;52903.38;;;-144.14;66.31
7075;BME280;3578;51.568;6.932;2023-03-20T09:12:50;52919.41;;;-144.14;68.05
7075;BME280;3578;51.568;6.932;2023-03-20T09:15:17;52869.31;;;-144.14;68.76
7075;BME280;3578;51.568;6.932;2023-03-20T09:17:44;52905.38;;;-144.14;68.05
7075;BME280;3578;51.568;6.932;2023-03-20T09:20:12;52885.34;;;-144.14;67.89
7075;BME280;3578;51.568;6.932;2023-03-20T09:22:39;52901.38;;;-144.14;67.54
7075;BME280;3578;51.568;6.932;2023-03-20T09:25:08;52931.44;;;-144.14;66.38
7075;BME280;3578;51.568;6.932;2023-03-20T09:27:36;52909.41;;;-144.14;66.72
7075;BME280;3578;51.568;6.932;2023-03-20T09:30:04;52947.47;;;-144.14;65.00
7075;BME280;3578;51.568;6.932;2023-03-20T09:32:32;52913.41;;;-144.14;63.85
7075;BME280;3578;51.568;6.932;2023-03-20T09:34:59;52925.44;;;-144.14;67.43
7075;BME280;3578;51.568;6.932;2023-03-20T09:37:28;52897.38;;;-144.14;66.02
7075;BME280;3578;51.568;6.932;2023-03-20T09:39:55;52927.44;;;-144.14;63.65
7075;BME280;3578;51.568;6.932;2023-03-20T09:42:35;52935.44;;;-144.14;65.10
7075;BME280;3578;51.568;6.932;2023-03-20T09:45:12;52949.47;;;-144.14;63.35
7075;BME280;3578;51.568;6.932;2023-03-20T09:47:50;52949.47;;;-144.14;61.35
7075;BME280;3578;51.568;6.932;2023-03-20T09:50:29;52945.47;;;-144.14;62.74
7075;BME280;3578;51.568;6.932;2023-03-20T09:53:03;52987.53;;;-144.14;62.35
7075;BME280;3578;51.568;6.932;2023-03-20T09:55:36;53021.63;;;-144.14;58.75
7075;BME280;3578;51.568;6.932;2023-03-20T09:58:11;52973.53;;;-144.14;61.38
7075;BME280;3578;51.568;6.932;2023-03-20T10:00:42;52999.56;;;-144.14;61.92
7075;BME280;3578;51.568;6.932;2023-03-20T10:03:18;53011.59;;;-144.14;60.31
7075;BME280;3578;51.568;6.932;2023-03-20T10:05:50;53027.63;;;-144.14;61.53
7075;BME280;3578;51.568;6.932;2023-03-20T10:08:26;53059.69;;;-144.14;59.49
7075;BME280;3578;51.568;6.932;2023-03-20T10:11:07;53025.63;;;-144.14;60.92
7075;BME280;3578;51.568;6.932;2023-03-20T10:13:52;53039.66;;;-144.14;60.89
7075;BME280;3578;51.568;6.932;2023-03-20T10:16:37;53017.59;;;-144.14;60.74
7075;BME280;3578;51.568;6.932;2023-03-20T10:19:19;53087.75;;;-144.14;60.00
7075;BME280;3578;51.568;6.932;2023-03-20T10:21:50;53017.59;;;-144.14;58.55
7075;BME280;3578;51.568;6.932;2023-03-20T10:24:28;53097.75;;;-144.14;59.93
7075;BME280;3578;51.568;6.932;2023-03-20T10:27:03;53109.78;;;-144.14;57.77
7075;BME280;3578;51.568;6.932;2023-03-20T10:29:41;53077.72;;;-144.14;58.13
7075;BME280;3578;51.568;6.932;2023-03-20T10:32:19;53143.84;;;-144.14;58.05
7075;BME280;3578;51.568;6.932;2023-03-20T10:34:59;53093.75;;;-144.14;57.73
7075;BME280;3578;51.568;6.932;2023-03-20T10:37:43;53089.75;;;-144.14;59.69
7075;BME280;3578;51.568;6.932;2023-03-20T10:40:26;53059.69;;;-144.14;61.40
7075;BME280;3578;51.568;6.932;2023-03-20T10:42:58;53089.75;;;-144.14;59.65
7075;BME280;3578;51.568;6.932;2023-03-20T10:45:33;53099.78;;;-144.14;58.46
7075;BME280;3578;51.568;6.932;2023-03-20T10:48:06;53151.88;;;-144.14;57.65
7075;BME280;3578;51.568;6.932;2023-03-20T10:50:42;53141.84;;;-144.14;57.63
7075;BME280;3578;51.568;6.932;2023-03-20T10:53:26;53163.91;;;-144.14;56.97
7075;BME280;3578;51.568;6.932;2023-03-20T10:55:58;53177.94;;;-144.14;55.82
7075;BME280;3578;51.568;6.932;2023-03-20T10:58:29;53125.81;;;-144.14;56.45
7075;BME280;3578;51.568;6.932;2023-03-20T11:00:57;53173.91;;;-144.14;58.28
7075;BME280;3578;51.568;6.932;2023-03-20T11:03:27;53145.84;;;-144.14;58.97
7075;BME280;3578;51.568;6.932;2023-03-20T11:05:59;53187.94;;;-144.14;59.25
7075;BME280;3578;51.568;6.932;2023-03-20T11:08:36;53230.03;;;-144.14;54.92
7075;BME280;3578;51.568;6.932;2023-03-20T11:11:05;53250.06;;;-144.14;54.31
7075;BME280;3578;51.568;6.932;2023-03-20T11:13:34;53268.09;;;-144.14;53.62
7075;BME280;3578;51.568;6.932;2023-03-20T11:16:20;53236.03;;;-144.14;53.86
7075;BME280;3578;51.568;6.932;2023-03-20T11:18:48;53298.16;;;-144.14;52.38
7075;BME280;3578;51.568;6.932;2023-03-20T11:21:21;53218.00;;;-144.14;53.93
7075;BME280;3578;51.568;6.932;2023-03-20T11:23:49;53338.25;;;-144.14;52.24
7075;BME280;3578;51.568;6.932;2023-03-20T11:26:26;53262.09;;;-144.14;53.97
7075;BME280;3578;51.568;6.932;2023-03-20T11:28:57;53234.03;;;-144.14;56.64
7075;BME280;3578;51.568;6.932;2023-03-20T11:31:30;53266.09;;;-144.14;54.60
7075;BME280;3578;51.568;6.932;2023-03-20T11:34:19;53189.94;;;-144.14;57.50
7075;BME280;3578;51.568;6.932;2023-03-20T11:36:55;53230.03;;;-144.14;58.87
7075;BME280;3578;51.568;6.932;2023-03-20T11:39:25;53230.03;;;-144.14;58.49
7075;BME280;3578;51.568;6.932;2023-03-20T11:41:55;53199.97;;;-144.14;57.63
7075;BME280;3578;51.568;6.932;2023-03-20T11:44:25;53195.97;;;-144.14;57.49
7075;BME280;3578;51.568;6.932;2023-03-20T11:46:56;53232.03;;;-144.14;56.86
7075;BME280;3578;51.568;6.932;2023-03-20T11:49:25;53177.94;;;-144.14;57.27
7075;BME280;3578;51.568;6.932;2023-03-20T11:51:58;53181.94;;;-144.14;59.31
7075;BME280;3578;51.568;6.932;2023-03-20T11:54:26;53187.94;;;-144.14;58.57
7075;BME280;3578;51.568;6.932;2023-03-20T11:56:57;53181.94;;;-144.14;57.10
7075;BME280;3578;51.568;6.932;2023-03-20T11:59:29;53181.94;;;-144.14;59.90
7075;BME280;3578;51.568;6.932;2023-03-20T12:01:59;53195.97;;;-144.14;57.50
7075;BME280;3578;51.568;6.932;2023-03-20T12:04:29;53191.94;;;-144.14;58.58
7075;BME280;3578;51.568;6.932;2023-03-20T12:07:04;53113.78;;;-144.14;61.05
7075;BME280;3578;51.568;6.932;2023-03-20T12:09:40;53189.94;;;-144.14;62.96
7075;BME280;3578;51.568;6.932;2023-03-20T12:12:23;53147.88;;;-144.14;59.56
7075;BME280;3578;51.568;6.932;2023-03-20T12:15:00;53224.03;;;-144.14;60.28
7075;BME280;3578;51.568;6.932;2023-03-20T12:17:48;53226.03;;;-144.14;60.85
7075;BME280;3578;51.568;6.932;2023-03-20T12:20:31;53189.94;;;-144.14;61.88
7075;BME280;3578;51.568;6.932;2023-03-20T12:23:10;53171.91;;;-144.14;61.71
7075;BME280;3578;51.568;6.932;2023-03-20T12:25:43;53191.94;;;-144.14;63.69
7075;BME280;3578;51.568;6.932;2023-03-20T12:28:19;53129.81;;;-144.14;65.62
7075;BME280;3578;51.568;6.932;2023-03-20T12:31:17;53153.88;;;-144.14;64.56
7075;BME280;3578;51.568;6.932;2023-03-20T12:33:51;53133.84;;;-144.14;61.99
7075;BME280;3578;51.568;6.932;2023-03-20T12:36:27;53185.94;;;-144.14;64.77
7075;BME280;3578;51.568;6.932;2023-03-20T12:38:56;53193.97;;;-144.14;65.98
7075;BME280;3578;51.568;6.932;2023-03-20T12:41:28;53205.97;;;-144.14;67.12
7075;BME280;3578;51.568;6.932;2023-03-20T12:44:40;53238.03;;;-144.14;64.10
7075;BME280;3578;51.568;6.932;2023-03-20T12:47:27;53201.97;;;-144.14;62.58
7075;BME280;3578;51.568;6.932;2023-03-20T12:50:06;53185.94;;;-144.14;63.74
7075;BME280;3578;51.568;6.932;2023-03-20T12:52:44;53205.97;;;-144.14;63.53
7075;BME280;3578;51.568;6.932;2023-03-20T12:55:24;53212.00;;;-144.14;66.49
7075;BME280;3578;51.568;6.932;2023-03-20T12:58:17;53137.84;;;-144.14;68.94
7075;BME280;3578;51.568;6.932;2023-03-20T13:00:56;53177.94;;;-144.14;69.13
7075;BME280;3578;51.568;6.932;2023-03-20T13:03:57;53199.97;;;-144.14;69.82
7075;BME280;3578;51.568;6.932;2023-03-20T13:06:38;53216.00;;;-144.14;70.13
7075;BME280;3578;51.568;6.932;2023-03-20T13:09:43;53197.97;;;-144.14;72.55
7075;BME280;3578;51.568;6.932;2023-03-20T13:12:23;53242.06;;;-144.14;65.33
7075;BME280;3578;51.568;6.932;2023-03-20T13:15:04;53210.00;;;-144.14;67.31
7075;BME280;3578;51.568;6.932;2023-03-20T13:17:45;53230.03;;;-144.14;65.92
7075;BME280;3578;51.568;6.932;2023-03-20T13:20:23;53230.03;;;-144.14;65.76
7075;BME280;3578;51.568;6.932;2023-03-20T13:23:02;53199.97;;;-144.14;67.27
7075;BME280;3578;51.568;6.932;2023-03-20T13:25:49;53161.91;;;-144.14;68.88